createdAt,value
2022-08-01T00:04:43.349Z,1.25
2022-08-01T00:09:46.685Z,1.10
2022-08-01T00:14:49.966Z,1.35
2022-08-01T00:19:54.848Z,1.23
2022-08-01T00:24:58.029Z,1.00
2022-08-01T00:30:11.968Z,1.55
2022-08-01T00:35:19.300Z,1.15
2022-08-01T00:40:22.766Z,1.08
2022-08-01T00:45:26.211Z,1.38
2022-08-01T00:50:32.394Z,1.10
2022-08-01T00:55:36.211Z,1.30
2022-08-01T01:00:53.994Z,1.02
2022-08-01T01:06:09.969Z,1.20
2022-08-01T01:11:19.831Z,1.15
2022-08-01T01:16:26.308Z,1.20
2022-08-01T01:21:47.646Z,1.30
2022-08-01T01:26:59.665Z,1.10
2022-08-01T01:32:09.299Z,1.20
2022-08-01T01:37:17.691Z,1.23
2022-08-01T01:42:22.916Z,1.33
2022-08-01T01:47:29.552Z,1.30
2022-08-01T01:52:36.416Z,1.70
2022-08-01T01:57:43.973Z,1.35
2022-08-01T02:02:49.702Z,1.50
2022-08-01T02:07:59.464Z,1.48
2022-08-01T02:13:05.826Z,1.55
2022-08-01T02:18:12.972Z,1.30
2022-08-01T02:23:17.047Z,1.48
2022-08-01T02:28:27.376Z,1.50
2022-08-01T02:33:38.582Z,1.60
2022-08-01T02:38:46.684Z,1.60
2022-08-01T02:43:53.729Z,1.50
2022-08-01T02:49:00.970Z,1.33
2022-08-01T02:54:07.273Z,1.08
2022-08-01T02:59:15.397Z,1.60
2022-08-01T03:04:21.647Z,1.60
2022-08-01T03:09:26.439Z,1.65
2022-08-01T03:14:32.376Z,1.50
2022-08-01T03:19:39.745Z,1.50
2022-08-01T03:24:44.715Z,2.00
2022-08-01T03:29:48.899Z,1.70
2022-08-01T03:34:53.656Z,1.70
2022-08-01T03:40:08.081Z,1.55
2022-08-01T03:50:50.119Z,1.90
2022-08-01T03:55:55.079Z,1.52
2022-08-01T04:00:59.235Z,1.88
2022-08-01T04:06:11.556Z,1.63
2022-08-01T04:11:15.158Z,1.80
2022-08-01T04:16:18.611Z,1.83
2022-08-01T04:21:29.798Z,1.80
2022-08-01T04:26:35.154Z,1.95
2022-08-01T04:31:44.129Z,1.83
2022-08-01T04:36:50.692Z,2.40
2022-08-01T04:41:57.500Z,1.42
2022-08-01T04:47:04.284Z,1.83
2022-08-01T04:52:12.684Z,1.45
2022-08-01T04:57:22.328Z,1.50
2022-08-01T05:02:29.242Z,1.70
2022-08-01T05:07:45.224Z,2.00
2022-08-01T05:12:49.483Z,1.50
2022-08-01T05:17:52.869Z,1.50
2022-08-01T05:22:58.287Z,1.48
2022-08-01T05:28:01.681Z,1.70
2022-08-01T05:33:05.114Z,1.83
2022-08-01T05:38:14.041Z,1.33
2022-08-01T05:43:19.435Z,1.40
2022-08-01T05:48:23.817Z,1.80
2022-08-01T05:53:28.911Z,1.70
2022-08-01T05:58:33.430Z,1.20
2022-08-01T06:03:36.856Z,1.83
2022-08-01T06:08:41.476Z,1.42
2022-08-01T06:13:48.441Z,1.33
2022-08-01T06:18:56.482Z,1.73
2022-08-01T06:24:01.917Z,1.70
2022-08-01T06:29:05.616Z,1.83
2022-08-01T06:34:08.982Z,1.70
2022-08-01T06:39:13.623Z,1.83
2022-08-01T06:44:19.036Z,1.75
2022-08-01T06:49:22.485Z,1.83
2022-08-01T06:54:27.319Z,1.63
2022-08-01T06:59:31.212Z,2.17
2022-08-01T07:04:34.557Z,2.03
2022-08-01T07:09:42.103Z,2.30
2022-08-01T07:14:45.563Z,2.10
2022-08-01T07:19:49.056Z,1.95
2022-08-01T07:24:54.894Z,1.60
2022-08-01T07:29:58.661Z,1.50
2022-08-01T07:35:02.017Z,1.70
2022-08-01T07:40:08.016Z,1.23
2022-08-01T07:45:12.645Z,1.17
2022-08-01T07:50:15.870Z,1.10
2022-08-01T07:55:21.831Z,1.10
2022-08-01T08:00:31.491Z,1.20
2022-08-01T08:05:58.269Z,1.13
2022-08-01T08:11:05.833Z,1.10
2022-08-01T08:16:09.541Z,1.00
2022-08-01T08:21:12.882Z,1.33
2022-08-01T08:26:17.681Z,1.17
2022-08-01T08:31:25.317Z,1.60
2022-08-01T08:36:47.675Z,1.25
2022-08-01T08:41:56.210Z,1.40
2022-08-01T08:47:02.909Z,1.70
2022-08-01T08:52:08.992Z,1.40
2022-08-01T08:57:17.453Z,1.33
2022-08-01T09:02:29.822Z,1.23
2022-08-01T09:07:33.468Z,1.20
2022-08-01T09:13:04.893Z,1.60
2022-08-01T09:18:08.568Z,1.48
2022-08-01T09:23:33.725Z,1.67
2022-08-01T09:28:39.098Z,1.90
2022-08-01T09:33:54.654Z,1.90
2022-08-01T09:38:58.622Z,1.55
2022-08-01T09:44:04.663Z,1.70
2022-08-01T09:49:10.912Z,1.70
2022-08-01T09:54:31.350Z,1.60
2022-08-01T09:59:57.708Z,1.48
2022-08-01T10:05:20.880Z,1.42
2022-08-01T10:10:28.708Z,1.70
2022-08-01T10:15:37.248Z,1.50
2022-08-01T10:20:41.882Z,1.70
2022-08-01T10:25:58.521Z,1.40
2022-08-01T10:31:14.789Z,1.67
2022-08-01T10:36:22.905Z,1.52
2022-08-01T10:41:30.593Z,1.70
2022-08-01T10:46:40.062Z,1.80
2022-08-01T10:51:52.887Z,1.70
2022-08-01T10:57:02.851Z,1.88
2022-08-01T11:02:08.274Z,1.50
2022-08-01T11:07:20.342Z,1.75
2022-08-01T11:12:41.497Z,1.65
2022-08-01T11:17:49.804Z,1.70
2022-08-01T11:23:19.266Z,1.63
2022-08-01T11:28:32.008Z,1.73
2022-08-01T11:33:55.043Z,1.45
2022-08-01T11:39:21.562Z,1.42
2022-08-01T11:44:51.502Z,1.65
2022-08-01T11:49:58.963Z,1.85
2022-08-01T11:55:10.341Z,1.80
2022-08-01T12:00:27.023Z,2.88
2022-08-01T12:05:51.770Z,2.00
2022-08-01T12:11:01.988Z,2.20
2022-08-01T12:16:09.959Z,2.50
2022-08-01T12:21:14.738Z,2.35
2022-08-01T12:26:29.153Z,2.45
2022-08-01T12:31:44.648Z,2.40
2022-08-01T12:36:55.501Z,2.22
2022-08-01T12:42:09.151Z,2.33
2022-08-01T12:47:13.596Z,2.03
2022-08-01T12:52:26.800Z,2.20
2022-08-01T12:58:05.861Z,2.03
2022-08-01T13:03:11.449Z,2.15
2022-08-01T13:08:17.686Z,1.80
2022-08-01T13:13:27.876Z,2.10
2022-08-01T13:18:34.874Z,2.30
2022-08-01T13:24:02.748Z,2.65
2022-08-01T13:29:08.003Z,2.60
2022-08-01T13:34:17.799Z,2.05
2022-08-01T13:39:46.910Z,2.22
2022-08-01T13:44:50.157Z,2.00
2022-08-01T13:49:54.961Z,2.40
2022-08-01T13:55:15.735Z,2.17
2022-08-01T14:00:19.521Z,2.03
2022-08-01T14:05:23.258Z,2.78
2022-08-01T14:15:55.434Z,2.15
2022-08-01T14:21:05.312Z,2.35
2022-08-01T14:26:23.884Z,2.60
2022-08-01T14:31:32.147Z,2.13
2022-08-01T14:36:44.015Z,2.00
2022-08-01T14:41:49.202Z,2.20
2022-08-01T14:46:57.897Z,2.13
2022-08-01T14:52:04.644Z,2.20
2022-08-01T14:57:19.300Z,2.08
2022-08-01T15:02:30.740Z,2.28
2022-08-01T15:07:52.441Z,2.38
2022-08-01T15:13:21.662Z,2.00
2022-08-01T15:18:34.351Z,1.90
2022-08-01T15:23:38.949Z,1.98
2022-08-01T15:28:44.385Z,2.10
2022-08-01T15:33:54.442Z,2.00
2022-08-01T15:39:23.393Z,2.00
2022-08-01T15:44:29.142Z,2.20
2022-08-01T15:49:52.148Z,2.50
2022-08-01T15:55:05.749Z,2.13
2022-08-01T16:00:12.540Z,2.42
2022-08-01T16:05:25.478Z,1.98
2022-08-01T16:10:29.054Z,1.80
2022-08-01T16:15:36.660Z,2.30
2022-08-01T16:20:45.738Z,2.25
2022-08-01T16:25:51.079Z,1.90
2022-08-01T16:31:10.848Z,1.85
2022-08-01T16:36:27.464Z,2.00
2022-08-01T16:41:30.773Z,2.28
2022-08-01T16:46:35.660Z,1.90
2022-08-01T16:51:48.446Z,2.20
2022-08-01T16:56:56.035Z,2.60
2022-08-01T17:02:03.941Z,2.30
2022-08-01T17:07:09.849Z,2.22
2022-08-01T17:12:14.364Z,2.42
2022-08-01T17:17:29.960Z,2.15
2022-08-01T17:22:41.180Z,1.95
2022-08-01T17:27:45.701Z,2.10
2022-08-01T17:32:56.588Z,2.42
2022-08-01T17:38:07.879Z,2.45
2022-08-01T17:43:11.231Z,2.13
2022-08-01T17:48:18.100Z,2.28
2022-08-01T17:53:25.620Z,2.17
2022-08-01T17:58:50.865Z,1.83
2022-08-01T18:03:59.444Z,2.20
2022-08-01T18:09:03.701Z,1.92
2022-08-01T18:14:14.351Z,1.92
2022-08-01T18:19:24.291Z,2.45
2022-08-01T18:24:27.790Z,1.90
2022-08-01T18:29:47.368Z,2.47
2022-08-01T18:34:53.456Z,1.88
2022-08-01T18:39:56.966Z,2.22
2022-08-01T18:45:08.897Z,2.15
2022-08-01T18:50:15.269Z,1.77
2022-08-01T18:55:22.166Z,2.17
2022-08-01T19:00:25.495Z,1.58
2022-08-01T19:05:36.569Z,1.60
2022-08-01T19:10:42.979Z,1.85
2022-08-01T19:15:49.575Z,2.03
2022-08-01T19:20:54.654Z,1.92
2022-08-01T19:25:59.848Z,1.80
2022-08-01T19:31:04.169Z,1.90
2022-08-01T19:36:18.211Z,2.20
2022-08-01T19:41:24.732Z,2.00
2022-08-01T19:46:33.531Z,2.00
2022-08-01T19:51:45.406Z,2.47
2022-08-01T19:56:52.049Z,2.38
2022-08-01T20:01:55.823Z,2.08
2022-08-01T20:07:00.947Z,2.17
2022-08-01T20:12:05.203Z,1.85
2022-08-01T20:17:09.050Z,2.20
2022-08-01T20:22:15.636Z,1.98
2022-08-01T20:27:26.991Z,3.00
2022-08-01T20:32:35.734Z,2.80
2022-08-01T20:38:03.935Z,2.50
2022-08-01T20:43:10.317Z,2.60
2022-08-01T20:48:13.788Z,2.58
2022-08-01T20:53:24.155Z,2.08
2022-08-01T20:58:32.474Z,2.15
2022-08-01T21:03:41.664Z,1.80
2022-08-01T21:08:49.981Z,1.90
2022-08-01T21:13:54.183Z,3.28
2022-08-01T21:24:26.680Z,2.38
2022-08-01T21:29:33.801Z,2.50
2022-08-01T21:34:41.452Z,2.03
2022-08-01T21:39:47.172Z,2.30
2022-08-01T21:44:50.505Z,2.10
2022-08-01T21:49:54.266Z,1.88
2022-08-01T21:55:05.338Z,2.30
2022-08-01T22:00:25.711Z,2.30
2022-08-01T22:05:50.691Z,2.03
2022-08-01T22:11:00.815Z,2.22
2022-08-01T22:16:05.457Z,2.22
2022-08-01T22:21:09.691Z,2.53
2022-08-01T22:26:15.423Z,2.45
2022-08-01T22:31:19.684Z,2.05
2022-08-01T22:36:23.407Z,2.35
2022-08-01T22:42:01.717Z,2.15
2022-08-01T22:47:01.953Z,1.83
2022-08-01T22:52:13.053Z,2.00
2022-08-01T22:57:25.767Z,1.70
2022-08-01T23:02:31.980Z,1.92
2022-08-01T23:07:39.667Z,1.98
2022-08-01T23:12:45.611Z,1.80
2022-08-01T23:17:50.502Z,1.52
2022-08-01T23:22:54.925Z,1.80
2022-08-01T23:28:05.085Z,1.77
2022-08-01T23:33:09.500Z,1.88
2022-08-01T23:38:20.364Z,1.50
2022-08-01T23:43:25.316Z,1.50
2022-08-01T23:48:28.531Z,1.73
2022-08-01T23:53:32.318Z,1.50
2022-08-01T23:58:36.995Z,1.98
